createdAt,value
2022-12-20T00:01:34.654Z,8.90
2022-12-20T00:04:05.803Z,8.90
2022-12-20T00:06:36.404Z,8.90
2022-12-20T00:09:07.439Z,8.90
2022-12-20T00:11:35.017Z,8.80
2022-12-20T00:14:02.266Z,8.80
2022-12-20T00:16:30.452Z,8.80
2022-12-20T00:19:01.080Z,8.90
2022-12-20T00:21:29.577Z,9.00
2022-12-20T00:23:58.050Z,9.00
2022-12-20T00:26:29.802Z,9.00
2022-12-20T00:28:57.805Z,9.10
2022-12-20T00:31:27.121Z,9.10
2022-12-20T00:33:56.534Z,9.10
2022-12-20T00:36:27.264Z,9.20
2022-12-20T00:38:57.074Z,9.20
2022-12-20T00:41:28.542Z,9.20
2022-12-20T00:43:56.413Z,9.30
2022-12-20T00:46:24.824Z,9.30
2022-12-20T00:48:55.662Z,9.30
2022-12-20T00:51:29.557Z,9.30
2022-12-20T00:53:57.033Z,9.30
2022-12-20T00:56:26.037Z,9.30
2022-12-20T00:58:58.761Z,9.30
2022-12-20T01:01:30.778Z,9.40
2022-12-20T01:04:01.710Z,9.30
2022-12-20T01:06:30.338Z,9.30
2022-12-20T01:08:58.390Z,9.30
2022-12-20T01:11:35.006Z,9.30
2022-12-20T01:14:16.816Z,9.30
2022-12-20T01:16:47.045Z,9.30
2022-12-20T01:19:18.139Z,9.30
2022-12-20T01:21:45.891Z,9.30
2022-12-20T01:24:20.046Z,9.30
2022-12-20T01:26:48.031Z,9.30
2022-12-20T01:29:15.992Z,9.40
2022-12-20T01:31:44.232Z,9.30
2022-12-20T01:34:12.264Z,9.30
2022-12-20T01:36:39.465Z,9.30
2022-12-20T01:39:12.075Z,9.30
2022-12-20T01:41:40.337Z,9.30
2022-12-20T01:44:27.315Z,9.40
2022-12-20T01:46:55.168Z,9.40
2022-12-20T01:49:41.373Z,9.30
2022-12-20T01:52:31.133Z,9.30
2022-12-20T01:55:25.223Z,9.30
2022-12-20T01:58:03.838Z,9.30
2022-12-20T02:00:31.429Z,9.30
2022-12-20T02:03:08.131Z,9.30
2022-12-20T02:05:44.336Z,9.30
2022-12-20T02:08:14.693Z,9.30
2022-12-20T02:10:57.707Z,9.30
2022-12-20T02:14:04.791Z,9.40
2022-12-20T02:16:43.968Z,9.40
2022-12-20T02:19:28.955Z,9.40
2022-12-20T02:22:16.611Z,9.40
2022-12-20T02:25:20.333Z,9.40
2022-12-20T02:28:35.606Z,9.40
2022-12-20T02:31:09.683Z,9.40
2022-12-20T02:33:37.277Z,9.40
2022-12-20T02:36:05.131Z,9.40
2022-12-20T02:38:38.023Z,9.40
2022-12-20T02:41:21.833Z,9.40
2022-12-20T02:44:16.966Z,9.40
2022-12-20T02:46:45.745Z,9.40
2022-12-20T02:49:18.520Z,9.40
2022-12-20T02:51:49.435Z,9.40
2022-12-20T02:54:17.776Z,9.40
2022-12-20T02:57:25.713Z,9.40
2022-12-20T03:00:08.866Z,9.30
2022-12-20T03:02:55.981Z,9.30
2022-12-20T03:05:26.531Z,9.30
2022-12-20T03:07:54.281Z,9.30
2022-12-20T03:10:24.930Z,9.20
2022-12-20T03:12:55.233Z,9.20
2022-12-20T03:15:22.348Z,9.20
2022-12-20T03:17:52.879Z,9.20
2022-12-20T03:20:20.126Z,9.20
2022-12-20T03:22:47.281Z,9.20
2022-12-20T03:25:14.763Z,9.10
2022-12-20T03:27:41.885Z,9.20
2022-12-20T03:30:10.488Z,9.10
2022-12-20T03:32:38.938Z,9.10
2022-12-20T03:35:07.644Z,9.10
2022-12-20T03:37:38.338Z,9.10
2022-12-20T03:40:08.385Z,9.20
2022-12-20T03:42:36.236Z,9.20
2022-12-20T03:45:04.995Z,9.10
2022-12-20T03:47:32.612Z,9.20
2022-12-20T03:49:59.906Z,9.20
2022-12-20T03:52:29.912Z,9.20
2022-12-20T03:54:57.350Z,9.10
2022-12-20T03:57:33.771Z,9.20
2022-12-20T04:00:01.558Z,9.20
2022-12-20T04:02:30.018Z,9.20
2022-12-20T04:04:57.374Z,9.20
2022-12-20T04:07:24.541Z,9.30
2022-12-20T04:09:52.079Z,9.30
2022-12-20T04:12:19.222Z,9.30
2022-12-20T04:14:46.448Z,9.30
2022-12-20T04:17:13.967Z,9.30
2022-12-20T04:19:41.680Z,9.30
2022-12-20T04:22:09.312Z,9.30
2022-12-20T04:24:58.326Z,9.30
2022-12-20T04:27:28.863Z,9.30
2022-12-20T04:29:57.397Z,9.30
2022-12-20T04:32:24.849Z,9.30
2022-12-20T04:34:52.355Z,9.30
2022-12-20T04:37:20.389Z,9.30
2022-12-20T04:39:52.182Z,9.30
2022-12-20T04:42:26.479Z,9.30
2022-12-20T04:44:55.229Z,9.30
2022-12-20T04:47:26.567Z,9.30
2022-12-20T04:49:55.082Z,9.30
2022-12-20T04:52:47.129Z,9.30
2022-12-20T04:55:15.416Z,9.40
2022-12-20T04:57:42.586Z,9.40
2022-12-20T05:00:11.145Z,9.40
2022-12-20T05:02:43.733Z,9.50
2022-12-20T05:05:14.516Z,9.50
2022-12-20T05:07:48.313Z,9.50
2022-12-20T05:10:15.616Z,9.50
2022-12-20T05:12:44.666Z,9.60
2022-12-20T05:15:19.139Z,9.60
2022-12-20T05:17:46.542Z,9.70
2022-12-20T05:20:14.192Z,9.70
2022-12-20T05:23:02.298Z,9.70
2022-12-20T05:25:47.988Z,9.70
2022-12-20T05:28:16.430Z,9.80
2022-12-20T05:30:43.511Z,9.80
2022-12-20T05:33:12.813Z,9.80
2022-12-20T05:35:42.355Z,9.90
2022-12-20T05:38:12.720Z,9.90
2022-12-20T05:40:41.496Z,9.90
2022-12-20T05:43:09.904Z,9.90
2022-12-20T05:45:51.388Z,9.90
2022-12-20T05:48:24.503Z,9.90
2022-12-20T05:50:53.368Z,9.90
2022-12-20T05:53:26.717Z,9.90
2022-12-20T05:55:57.985Z,9.90
2022-12-20T05:58:29.755Z,9.90
2022-12-20T06:01:06.465Z,9.90
2022-12-20T06:03:41.623Z,9.80
2022-12-20T06:06:15.667Z,9.90
2022-12-20T06:08:45.891Z,9.90
2022-12-20T06:11:32.043Z,10.00
2022-12-20T06:14:04.612Z,10.00
2022-12-20T06:16:32.832Z,10.00
2022-12-20T06:19:01.006Z,10.10
2022-12-20T06:21:29.190Z,10.10
2022-12-20T06:24:01.601Z,10.10
2022-12-20T06:26:36.034Z,10.20
2022-12-20T06:29:07.388Z,10.10
2022-12-20T06:31:40.774Z,10.10
2022-12-20T06:34:08.053Z,10.10
2022-12-20T06:36:39.613Z,10.10
2022-12-20T06:39:10.179Z,10.20
2022-12-20T06:41:46.032Z,10.20
2022-12-20T06:44:13.600Z,10.20
2022-12-20T06:46:40.962Z,10.10
2022-12-20T06:49:08.851Z,10.10
2022-12-20T06:51:36.160Z,10.00
2022-12-20T06:54:03.611Z,10.00
2022-12-20T06:56:39.239Z,10.00
2022-12-20T06:59:10.331Z,10.00
2022-12-20T07:01:37.644Z,10.00
2022-12-20T07:04:05.595Z,9.90
2022-12-20T07:06:32.989Z,9.90
2022-12-20T07:09:00.446Z,9.90
2022-12-20T07:11:27.775Z,10.00
2022-12-20T07:13:58.569Z,10.00
2022-12-20T07:16:26.044Z,9.90
2022-12-20T07:18:54.197Z,10.00
2022-12-20T07:21:21.948Z,10.00
2022-12-20T07:23:49.234Z,10.00
2022-12-20T07:26:17.133Z,10.00
2022-12-20T07:28:44.803Z,9.90
2022-12-20T07:31:12.209Z,10.00
2022-12-20T07:33:39.899Z,10.00
2022-12-20T07:36:11.458Z,10.00
2022-12-20T07:38:39.400Z,10.00
2022-12-20T07:41:11.788Z,10.00
2022-12-20T07:43:39.544Z,10.00
2022-12-20T07:46:08.141Z,10.00
2022-12-20T07:48:36.209Z,10.00
2022-12-20T07:51:16.408Z,10.00
2022-12-20T07:53:51.804Z,10.00
2022-12-20T07:56:21.382Z,10.00
2022-12-20T07:58:50.277Z,10.00
2022-12-20T08:01:18.106Z,10.00
2022-12-20T08:03:52.431Z,10.00
2022-12-20T08:06:20.380Z,10.00
2022-12-20T08:08:52.007Z,10.10
2022-12-20T08:11:22.411Z,10.10
2022-12-20T08:13:57.574Z,10.10
2022-12-20T08:16:26.005Z,10.10
2022-12-20T08:18:53.354Z,10.20
2022-12-20T08:21:20.527Z,10.20
2022-12-20T08:23:47.814Z,10.20
2022-12-20T08:26:14.985Z,10.20
2022-12-20T08:28:42.341Z,10.30
2022-12-20T08:31:10.539Z,10.30
2022-12-20T08:33:40.301Z,10.30
2022-12-20T08:36:11.649Z,10.20
2022-12-20T08:38:39.649Z,10.20
2022-12-20T08:41:11.175Z,10.20
2022-12-20T08:43:40.002Z,10.20
2022-12-20T08:46:09.149Z,10.20
2022-12-20T08:48:36.755Z,10.20
2022-12-20T08:51:09.056Z,10.20
2022-12-20T08:53:37.914Z,10.10
2022-12-20T08:56:08.620Z,10.10
2022-12-20T08:58:36.814Z,10.10
2022-12-20T09:01:08.532Z,10.20
2022-12-20T09:03:37.297Z,10.20
2022-12-20T09:06:14.842Z,10.20
2022-12-20T09:08:42.386Z,10.20
2022-12-20T09:11:15.788Z,10.20
2022-12-20T09:13:45.121Z,10.20
2022-12-20T09:16:16.518Z,10.20
2022-12-20T09:18:43.944Z,10.20
2022-12-20T09:21:12.475Z,10.20
2022-12-20T09:23:39.977Z,10.20
2022-12-20T09:26:12.823Z,10.20
2022-12-20T09:28:42.374Z,10.20
2022-12-20T09:31:14.629Z,10.20
2022-12-20T09:33:42.713Z,10.20
2022-12-20T09:36:21.873Z,10.20
2022-12-20T09:38:49.793Z,10.10
2022-12-20T09:41:34.700Z,10.20
2022-12-20T09:44:27.604Z,10.20
2022-12-20T09:47:05.130Z,10.20
2022-12-20T09:49:39.564Z,10.20
2022-12-20T09:52:12.930Z,10.30
2022-12-20T09:55:01.537Z,10.20
2022-12-20T09:57:54.202Z,10.20
2022-12-20T10:00:21.808Z,10.20
2022-12-20T10:03:09.907Z,10.20
2022-12-20T10:05:56.695Z,10.20
2022-12-20T10:08:50.674Z,10.20
2022-12-20T10:11:58.178Z,10.20
2022-12-20T10:14:37.378Z,10.20
2022-12-20T10:17:59.972Z,10.10
2022-12-20T10:20:55.056Z,10.10
2022-12-20T10:23:37.273Z,10.10
2022-12-20T10:26:11.270Z,10.00
2022-12-20T10:28:39.325Z,10.00
2022-12-20T10:31:13.957Z,10.00
2022-12-20T10:33:42.528Z,10.00
2022-12-20T10:36:32.713Z,10.00
2022-12-20T10:39:04.692Z,10.00
2022-12-20T10:41:51.876Z,9.90
2022-12-20T10:44:29.833Z,9.90
2022-12-20T10:47:00.291Z,9.90
2022-12-20T10:49:41.130Z,9.90
2022-12-20T10:52:08.514Z,9.90
2022-12-20T10:54:46.295Z,9.90
2022-12-20T10:57:23.015Z,9.90
2022-12-20T11:00:00.396Z,9.90
2022-12-20T11:02:42.079Z,10.00
2022-12-20T11:05:12.800Z,10.00
2022-12-20T11:10:45.516Z,10.00
2022-12-20T11:13:29.423Z,10.10
2022-12-20T11:15:57.869Z,10.10
2022-12-20T11:18:49.936Z,10.10
2022-12-20T11:21:43.962Z,10.10
2022-12-20T11:24:31.885Z,10.10
2022-12-20T11:27:24.239Z,10.00
2022-12-20T11:30:14.693Z,10.10
2022-12-20T11:33:11.810Z,10.10
2022-12-20T11:35:48.995Z,10.10
2022-12-20T11:38:22.547Z,10.10
2022-12-20T11:41:25.275Z,10.10
2022-12-20T11:44:24.795Z,10.20
2022-12-20T11:46:51.305Z,10.20
2022-12-20T11:49:21.472Z,10.10
2022-12-20T11:52:20.854Z,10.20
2022-12-20T11:55:23.281Z,10.20
2022-12-20T11:58:24.342Z,10.20
2022-12-20T12:01:13.656Z,10.20
2022-12-20T12:03:59.445Z,10.20
2022-12-20T12:06:32.993Z,10.10
2022-12-20T12:09:06.909Z,10.10
2022-12-20T12:14:46.829Z,10.10
2022-12-20T12:17:55.029Z,10.10
2022-12-20T12:20:50.907Z,10.10
2022-12-20T12:23:44.640Z,10.10
2022-12-20T12:26:26.810Z,10.10
2022-12-20T12:29:00.476Z,10.10
2022-12-20T12:32:06.811Z,10.10
2022-12-20T12:35:13.995Z,10.10
2022-12-20T12:38:02.060Z,10.10
2022-12-20T12:41:07.447Z,10.10
2022-12-20T12:43:56.359Z,10.10
2022-12-20T12:46:37.622Z,10.10
2022-12-20T12:49:16.913Z,10.10
2022-12-20T12:51:55.822Z,10.10
2022-12-20T12:54:27.675Z,10.10
2022-12-20T12:57:03.806Z,10.10
2022-12-20T12:59:34.007Z,10.10
2022-12-20T13:02:04.474Z,10.10
2022-12-20T13:05:09.568Z,10.10
2022-12-20T13:07:37.233Z,10.10
2022-12-20T13:10:17.201Z,10.10
2022-12-20T13:13:13.653Z,10.10
2022-12-20T13:15:40.861Z,10.10
2022-12-20T13:18:14.207Z,10.10
2022-12-20T13:20:41.592Z,10.10
2022-12-20T13:23:08.748Z,10.10
2022-12-20T13:25:46.037Z,10.10
2022-12-20T13:28:18.898Z,10.10
2022-12-20T13:30:48.392Z,10.10
2022-12-20T13:33:41.813Z,10.10
2022-12-20T13:36:12.185Z,10.10
2022-12-20T13:38:50.428Z,10.10
2022-12-20T13:41:37.210Z,10.10
2022-12-20T13:44:16.648Z,10.10
2022-12-20T13:47:25.110Z,10.10
2022-12-20T13:49:52.774Z,10.10
2022-12-20T13:52:40.540Z,10.10
2022-12-20T13:55:33.144Z,10.10
2022-12-20T13:58:17.672Z,10.10
2022-12-20T14:00:47.349Z,10.10
2022-12-20T14:03:28.018Z,10.10
2022-12-20T14:06:01.010Z,10.10
2022-12-20T14:08:33.696Z,10.10
2022-12-20T14:11:14.200Z,10.10
2022-12-20T14:13:42.515Z,10.10
2022-12-20T14:16:20.150Z,10.10
2022-12-20T14:19:12.597Z,10.10
2022-12-20T14:21:45.015Z,10.10
2022-12-20T14:24:18.931Z,10.10
2022-12-20T14:26:48.192Z,10.10
2022-12-20T14:29:29.953Z,10.10
2022-12-20T14:31:57.339Z,10.10
2022-12-20T14:34:39.672Z,10.10
2022-12-20T14:37:31.614Z,10.20
2022-12-20T14:40:09.856Z,10.10
2022-12-20T14:42:40.376Z,10.10
2022-12-20T14:45:25.711Z,10.20
2022-12-20T14:48:12.620Z,10.10
2022-12-20T14:50:43.588Z,10.20
2022-12-20T14:53:25.380Z,10.20
2022-12-20T14:55:53.301Z,10.20
2022-12-20T14:58:34.759Z,10.20
2022-12-20T15:01:21.810Z,10.20
2022-12-20T15:03:57.988Z,10.20
2022-12-20T15:06:44.524Z,10.20
2022-12-20T15:09:12.402Z,10.20
2022-12-20T15:11:42.047Z,10.20
2022-12-20T15:14:37.397Z,10.20
2022-12-20T15:17:11.838Z,10.20
2022-12-20T15:19:42.459Z,10.20
2022-12-20T15:22:24.010Z,10.20
2022-12-20T15:24:51.554Z,10.20
2022-12-20T15:27:18.866Z,10.20
2022-12-20T15:29:46.013Z,10.20
2022-12-20T15:32:24.460Z,10.20
2022-12-20T15:34:51.598Z,10.20
2022-12-20T15:37:19.306Z,10.20
2022-12-20T15:39:46.505Z,10.20
2022-12-20T15:42:17.733Z,10.20
2022-12-20T15:44:45.466Z,10.20
2022-12-20T15:47:17.240Z,10.20
2022-12-20T15:49:49.786Z,10.20
2022-12-20T15:52:23.953Z,10.20
2022-12-20T15:54:51.386Z,10.20
2022-12-20T15:57:18.666Z,10.20
2022-12-20T16:00:03.681Z,10.20
2022-12-20T16:02:39.268Z,10.20
2022-12-20T16:05:09.429Z,10.20
2022-12-20T16:07:36.653Z,10.20
2022-12-20T16:10:04.494Z,10.20
2022-12-20T16:12:36.724Z,10.20
2022-12-20T16:15:05.306Z,10.20
2022-12-20T16:17:32.696Z,10.20
2022-12-20T16:20:00.075Z,10.20
2022-12-20T16:22:27.426Z,10.20
2022-12-20T16:24:54.845Z,10.20
2022-12-20T16:27:22.166Z,10.20
2022-12-20T16:29:49.499Z,10.10
2022-12-20T16:32:21.624Z,10.10
2022-12-20T16:34:50.672Z,10.10
2022-12-20T16:37:18.844Z,10.10
2022-12-20T16:39:46.192Z,10.10
2022-12-20T16:42:22.275Z,10.10
2022-12-20T16:44:54.431Z,10.10
2022-12-20T16:47:22.030Z,10.10
2022-12-20T16:49:52.851Z,10.10
2022-12-20T16:52:22.715Z,10.10
2022-12-20T16:54:50.808Z,10.20
2022-12-20T16:57:18.137Z,10.10
2022-12-20T16:59:45.483Z,10.20
2022-12-20T17:02:24.057Z,10.10
2022-12-20T17:04:51.687Z,10.10
2022-12-20T17:07:19.009Z,10.20
2022-12-20T17:09:49.296Z,10.10
2022-12-20T17:12:19.966Z,10.10
2022-12-20T17:14:47.750Z,10.20
2022-12-20T17:17:15.466Z,10.20
2022-12-20T17:19:42.697Z,10.20
2022-12-20T17:24:57.168Z,10.10
2022-12-20T17:27:25.027Z,10.20
2022-12-20T17:29:52.538Z,10.10
2022-12-20T17:32:25.931Z,10.10
2022-12-20T17:34:54.377Z,10.10
2022-12-20T17:37:21.855Z,10.10
2022-12-20T17:39:49.442Z,10.10
2022-12-20T17:42:17.375Z,10.10
2022-12-20T17:44:46.395Z,10.10
2022-12-20T17:47:14.062Z,10.10
2022-12-20T17:49:41.293Z,10.10
2022-12-20T17:52:16.267Z,10.10
2022-12-20T17:54:44.643Z,10.10
2022-12-20T17:57:15.524Z,10.00
2022-12-20T17:59:43.633Z,10.00
2022-12-20T18:02:29.221Z,10.00
2022-12-20T18:04:56.398Z,10.00
2022-12-20T18:07:23.502Z,10.00
2022-12-20T18:09:50.939Z,10.00
2022-12-20T18:12:18.292Z,10.00
2022-12-20T18:14:48.259Z,10.00
2022-12-20T18:17:15.575Z,10.00
2022-12-20T18:19:43.917Z,10.00
2022-12-20T18:22:11.325Z,10.00
2022-12-20T18:24:38.532Z,10.00
2022-12-20T18:27:05.796Z,9.90
2022-12-20T18:29:34.187Z,9.90
2022-12-20T18:32:01.636Z,9.90
2022-12-20T18:34:29.306Z,9.90
2022-12-20T18:36:56.679Z,9.90
2022-12-20T18:39:24.336Z,9.90
2022-12-20T18:41:51.581Z,9.90
2022-12-20T18:44:18.716Z,9.90
2022-12-20T18:46:45.872Z,9.90
2022-12-20T18:49:13.103Z,9.90
2022-12-20T18:51:40.519Z,9.90
2022-12-20T18:54:10.224Z,9.90
2022-12-20T18:56:39.032Z,9.90
2022-12-20T18:59:11.850Z,9.90
2022-12-20T19:01:41.598Z,9.80
2022-12-20T19:04:10.036Z,9.80
2022-12-20T19:06:37.787Z,9.80
2022-12-20T19:09:10.836Z,9.80
2022-12-20T19:11:38.411Z,9.80
2022-12-20T19:14:07.647Z,9.80
2022-12-20T19:16:35.436Z,9.80
2022-12-20T19:19:08.549Z,9.80
2022-12-20T19:21:38.229Z,9.80
2022-12-20T19:24:07.111Z,9.80
2022-12-20T19:26:37.014Z,9.80
2022-12-20T19:29:05.894Z,9.90
2022-12-20T19:31:36.553Z,9.80
2022-12-20T19:34:11.603Z,9.90
2022-12-20T19:36:48.370Z,9.80
2022-12-20T19:39:22.250Z,9.90
2022-12-20T19:44:37.818Z,9.80
2022-12-20T19:47:05.110Z,9.80
2022-12-20T19:49:35.511Z,9.80
2022-12-20T19:52:03.503Z,9.80
2022-12-20T19:54:30.733Z,9.80
2022-12-20T19:56:58.611Z,9.80
2022-12-20T19:59:25.828Z,9.80
2022-12-20T20:01:53.060Z,9.80
2022-12-20T20:04:20.322Z,9.80
2022-12-20T20:06:47.489Z,9.80
2022-12-20T20:09:15.495Z,9.80
2022-12-20T20:11:42.783Z,9.70
2022-12-20T20:14:10.364Z,9.70
2022-12-20T20:16:38.252Z,9.80
2022-12-20T20:19:05.787Z,9.70
2022-12-20T20:21:36.398Z,9.70
2022-12-20T20:24:04.303Z,9.70
2022-12-20T20:26:31.799Z,9.70
2022-12-20T20:29:01.899Z,9.70
2022-12-20T20:31:29.339Z,9.70
2022-12-20T20:33:58.263Z,9.70
2022-12-20T20:36:25.340Z,9.70
2022-12-20T20:38:52.576Z,9.70
2022-12-20T20:41:20.232Z,9.70
2022-12-20T20:43:48.027Z,9.70
2022-12-20T20:46:17.079Z,9.70
2022-12-20T20:48:44.926Z,9.70
2022-12-20T20:51:12.994Z,9.60
2022-12-20T20:53:40.685Z,9.60
2022-12-20T20:56:09.235Z,9.60
2022-12-20T20:58:37.106Z,9.60
2022-12-20T21:01:11.047Z,9.60
2022-12-20T21:03:40.123Z,9.60
2022-12-20T21:08:55.887Z,9.50
2022-12-20T21:11:23.352Z,9.50
2022-12-20T21:13:50.536Z,9.50
2022-12-20T21:16:22.257Z,9.50
2022-12-20T21:18:54.598Z,9.50
2022-12-20T21:21:22.749Z,9.50
2022-12-20T21:23:50.668Z,9.50
2022-12-20T21:26:20.448Z,9.50
2022-12-20T21:28:48.261Z,9.50
2022-12-20T21:31:19.271Z,9.50
2022-12-20T21:33:46.504Z,9.50
2022-12-20T21:36:17.244Z,9.50
2022-12-20T21:38:50.345Z,9.40
2022-12-20T21:41:20.139Z,9.40
2022-12-20T21:43:47.333Z,9.40
2022-12-20T21:46:14.589Z,9.40
2022-12-20T21:48:44.340Z,9.40
2022-12-20T21:51:21.401Z,9.40
2022-12-20T21:53:51.631Z,9.40
2022-12-20T21:56:20.679Z,9.40
2022-12-20T21:58:47.988Z,9.30
2022-12-20T22:01:19.870Z,9.30
2022-12-20T22:03:51.645Z,9.30
2022-12-20T22:06:19.818Z,9.30
2022-12-20T22:08:47.165Z,9.30
2022-12-20T22:11:17.899Z,9.30
2022-12-20T22:13:46.304Z,9.30
2022-12-20T22:16:21.063Z,9.30
2022-12-20T22:18:50.962Z,9.20
2022-12-20T22:21:22.319Z,9.20
2022-12-20T22:23:50.071Z,9.20
2022-12-20T22:26:21.418Z,9.10
2022-12-20T22:28:55.350Z,9.10
2022-12-20T22:31:24.557Z,9.10
2022-12-20T22:33:53.416Z,9.20
2022-12-20T22:36:22.720Z,9.10
2022-12-20T22:38:54.837Z,9.10
2022-12-20T22:41:30.739Z,9.10
2022-12-20T22:43:59.525Z,9.10
2022-12-20T22:46:29.281Z,9.00
2022-12-20T22:48:58.354Z,9.00
2022-12-20T22:51:27.582Z,9.00
2022-12-20T22:53:58.044Z,9.00
2022-12-20T22:56:25.565Z,8.90
2022-12-20T22:58:52.819Z,8.90
2022-12-20T23:01:21.306Z,8.90
2022-12-20T23:03:49.431Z,8.90
2022-12-20T23:06:20.413Z,8.80
2022-12-20T23:08:48.557Z,8.80
2022-12-20T23:11:44.188Z,8.80
2022-12-20T23:14:34.082Z,8.80
2022-12-20T23:17:02.003Z,8.70
2022-12-20T23:19:49.520Z,8.70
2022-12-20T23:22:35.276Z,8.70
2022-12-20T23:25:02.528Z,8.60
2022-12-20T23:27:29.568Z,8.60
2022-12-20T23:29:56.558Z,8.60
2022-12-20T23:32:24.199Z,8.60
2022-12-20T23:34:51.482Z,8.60
2022-12-20T23:37:18.936Z,8.60
2022-12-20T23:39:46.009Z,8.60
2022-12-20T23:42:13.068Z,8.60
2022-12-20T23:44:40.229Z,8.60
2022-12-20T23:47:07.511Z,8.60
2022-12-20T23:49:34.606Z,8.50
2022-12-20T23:52:01.601Z,8.50
2022-12-20T23:54:28.633Z,8.50
2022-12-20T23:56:55.624Z,8.50
2022-12-20T23:59:23.543Z,8.50
